sensor_id;sensor_type;location;lat;lon;timestamp;pressure;altitude;pressure_sealevel;temperature;humidity
70158;BME280;57524;48.312;7.938;2022-07-09T00:02:13;100419.66;;;16.41;53.50
70158;BME280;57524;48.312;7.938;2022-07-09T00:04:40;100411.09;;;16.30;54.03
70158;BME280;57524;48.312;7.938;2022-07-09T00:07:06;100418.34;;;16.25;53.98
70158;BME280;57524;48.312;7.938;2022-07-09T00:09:33;100420.91;;;16.28;54.04
70158;BME280;57524;48.312;7.938;2022-07-09T00:12:00;100420.19;;;16.23;54.07
70158;BME280;57524;48.312;7.938;2022-07-09T00:14:27;100415.03;;;16.16;54.31
70158;BME280;57524;48.312;7.938;2022-07-09T00:16:56;100415.03;;;16.16;54.04
70158;BME280;57524;48.312;7.938;2022-07-09T00:19:23;100409.72;;;16.16;54.30
70158;BME280;57524;48.312;7.938;2022-07-09T00:21:49;100404.47;;;16.15;54.26
70158;BME280;57524;48.312;7.938;2022-07-09T00:24:16;100404.66;;;16.07;54.43
70158;BME280;57524;48.312;7.938;2022-07-09T00:26:42;100407.50;;;16.01;54.38
70158;BME280;57524;48.312;7.938;2022-07-09T00:29:09;100412.06;;;15.96;54.45
70158;BME280;57524;48.312;7.938;2022-07-09T00:31:36;100410.41;;;15.92;54.82
70158;BME280;57524;48.312;7.938;2022-07-09T00:34:04;100407.81;;;15.90;54.80
70158;BME280;57524;48.312;7.938;2022-07-09T00:36:30;100405.91;;;15.94;54.55
70158;BME280;57524;48.312;7.938;2022-07-09T00:38:57;100393.66;;;15.88;54.77
70158;BME280;57524;48.312;7.938;2022-07-09T00:41:24;100397.16;;;15.90;54.83
70158;BME280;57524;48.312;7.938;2022-07-09T00:43:50;100405.44;;;15.79;55.18
70158;BME280;57524;48.312;7.938;2022-07-09T00:46:17;100394.94;;;15.73;55.27
70158;BME280;57524;48.312;7.938;2022-07-09T00:48:44;100389.84;;;15.64;55.63
70158;BME280;57524;48.312;7.938;2022-07-09T00:51:13;100386.44;;;15.59;55.75
70158;BME280;57524;48.312;7.938;2022-07-09T00:53:40;100388.38;;;15.54;55.78
70158;BME280;57524;48.312;7.938;2022-07-09T00:56:07;100386.59;;;15.53;55.95
70158;BME280;57524;48.312;7.938;2022-07-09T00:58:35;100377.63;;;15.57;55.67
70158;BME280;57524;48.312;7.938;2022-07-09T01:01:02;100377.88;;;15.48;55.92
70158;BME280;57524;48.312;7.938;2022-07-09T01:03:29;100376.06;;;15.50;55.72
70158;BME280;57524;48.312;7.938;2022-07-09T01:05:55;100372.56;;;15.48;56.20
70158;BME280;57524;48.312;7.938;2022-07-09T01:08:24;100379.72;;;15.46;55.91
70158;BME280;57524;48.312;7.938;2022-07-09T01:10:51;100377.28;;;15.36;56.04
70158;BME280;57524;48.312;7.938;2022-07-09T01:13:19;100380.09;;;15.30;56.42
70158;BME280;57524;48.312;7.938;2022-07-09T01:15:46;100378.47;;;15.25;56.44
70158;BME280;57524;48.312;7.938;2022-07-09T01:18:13;100376.75;;;15.22;56.64
70158;BME280;57524;48.312;7.938;2022-07-09T01:20:41;100381.25;;;15.20;56.63
70158;BME280;57524;48.312;7.938;2022-07-09T01:23:08;100378.41;;;15.28;56.47
70158;BME280;57524;48.312;7.938;2022-07-09T01:25:35;100379.28;;;15.27;56.40
70158;BME280;57524;48.312;7.938;2022-07-09T01:28:03;100381.06;;;15.28;56.21
70158;BME280;57524;48.312;7.938;2022-07-09T01:30:31;100373.94;;;15.28;56.26
70158;BME280;57524;48.312;7.938;2022-07-09T01:32:59;100373.09;;;15.26;56.52
70158;BME280;57524;48.312;7.938;2022-07-09T01:35:25;100369.47;;;15.30;56.24
70158;BME280;57524;48.312;7.938;2022-07-09T01:37:53;100371.31;;;15.27;56.40
70158;BME280;57524;48.312;7.938;2022-07-09T01:40:20;100376.53;;;15.31;56.02
70158;BME280;57524;48.312;7.938;2022-07-09T01:42:47;100367.03;;;15.23;56.21
70158;BME280;57524;48.312;7.938;2022-07-09T01:45:14;100364.38;;;15.23;56.36
70158;BME280;57524;48.312;7.938;2022-07-09T01:47:41;100362.72;;;15.17;56.31
70158;BME280;57524;48.312;7.938;2022-07-09T01:50:08;100375.03;;;15.21;56.59
70158;BME280;57524;48.312;7.938;2022-07-09T01:52:35;100378.50;;;15.23;56.40
70158;BME280;57524;48.312;7.938;2022-07-09T01:55:04;100373.28;;;15.20;56.27
70158;BME280;57524;48.312;7.938;2022-07-09T01:57:31;100369.72;;;15.21;56.12
70158;BME280;57524;48.312;7.938;2022-07-09T01:59:58;100368.13;;;15.14;56.48
70158;BME280;57524;48.312;7.938;2022-07-09T02:02:24;100366.44;;;15.10;56.57
70158;BME280;57524;48.312;7.938;2022-07-09T02:04:51;100363.91;;;15.05;56.62
70158;BME280;57524;48.312;7.938;2022-07-09T02:07:17;100364.91;;;15.00;56.76
70158;BME280;57524;48.312;7.938;2022-07-09T02:09:44;100359.59;;;15.00;56.76
70158;BME280;57524;48.312;7.938;2022-07-09T02:12:12;100348.91;;;15.03;56.54
70158;BME280;57524;48.312;7.938;2022-07-09T02:14:39;100351.59;;;15.01;56.64
70158;BME280;57524;48.312;7.938;2022-07-09T02:17:05;100353.28;;;15.05;56.54
70158;BME280;57524;48.312;7.938;2022-07-09T02:19:32;100351.56;;;15.03;56.35
70158;BME280;57524;48.312;7.938;2022-07-09T02:21:58;100362.22;;;15.01;56.55
70158;BME280;57524;48.312;7.938;2022-07-09T02:24:25;100355.22;;;14.99;56.49
70158;BME280;57524;48.312;7.938;2022-07-09T02:26:53;100354.28;;;15.00;56.66
70158;BME280;57524;48.312;7.938;2022-07-09T02:29:21;100349.06;;;14.96;56.63
70158;BME280;57524;48.312;7.938;2022-07-09T02:31:47;100352.66;;;14.94;56.67
70158;BME280;57524;48.312;7.938;2022-07-09T02:34:14;100349.28;;;14.87;56.99
70158;BME280;57524;48.312;7.938;2022-07-09T02:36:41;100352.84;;;14.86;56.83
70158;BME280;57524;48.312;7.938;2022-07-09T02:39:07;100358.16;;;14.86;56.76
70158;BME280;57524;48.312;7.938;2022-07-09T02:41:34;100356.50;;;14.82;56.96
70158;BME280;57524;48.312;7.938;2022-07-09T02:44:00;100357.38;;;14.83;56.90
70158;BME280;57524;48.312;7.938;2022-07-09T02:46:28;100357.53;;;14.75;57.11
70158;BME280;57524;48.312;7.938;2022-07-09T02:48:55;100353.16;;;14.74;57.07
70158;BME280;57524;48.312;7.938;2022-07-09T02:51:22;100353.22;;;14.71;57.17
70158;BME280;57524;48.312;7.938;2022-07-09T02:53:48;100355.03;;;14.69;57.08
70158;BME280;57524;48.312;7.938;2022-07-09T02:56:15;100353.22;;;14.71;56.87
70158;BME280;57524;48.312;7.938;2022-07-09T02:58:41;100354.97;;;14.72;56.99
70158;BME280;57524;48.312;7.938;2022-07-09T03:01:08;100354.88;;;14.75;56.83
70158;BME280;57524;48.312;7.938;2022-07-09T03:03:36;100357.50;;;14.76;56.83
70158;BME280;57524;48.312;7.938;2022-07-09T03:06:03;100355.78;;;14.75;56.69
70158;BME280;57524;48.312;7.938;2022-07-09T03:08:31;100353.16;;;14.74;56.78
70158;BME280;57524;48.312;7.938;2022-07-09T03:10:57;100358.59;;;14.68;56.94
70158;BME280;57524;48.312;7.938;2022-07-09T03:13:24;100354.22;;;14.65;57.05
70158;BME280;57524;48.312;7.938;2022-07-09T03:15:51;100349.78;;;14.66;57.14
70158;BME280;57524;48.312;7.938;2022-07-09T03:18:18;100355.09;;;14.66;57.12
70158;BME280;57524;48.312;7.938;2022-07-09T03:20:47;100354.13;;;14.70;57.04
70158;BME280;57524;48.312;7.938;2022-07-09T03:23:14;100359.50;;;14.67;57.12
70158;BME280;57524;48.312;7.938;2022-07-09T03:25:40;100357.75;;;14.66;56.95
70158;BME280;57524;48.312;7.938;2022-07-09T03:28:08;100353.53;;;14.57;57.21
70158;BME280;57524;48.312;7.938;2022-07-09T03:30:35;100353.69;;;14.49;57.56
70158;BME280;57524;48.312;7.938;2022-07-09T03:33:02;100352.75;;;14.50;57.56
70158;BME280;57524;48.312;7.938;2022-07-09T03:35:29;100360.91;;;14.43;57.74
70158;BME280;57524;48.312;7.938;2022-07-09T03:37:57;100362.72;;;14.39;57.71
70158;BME280;57524;48.312;7.938;2022-07-09T03:40:23;100362.69;;;14.42;57.52
70158;BME280;57524;48.312;7.938;2022-07-09T03:42:51;100367.03;;;14.46;57.49
70158;BME280;57524;48.312;7.938;2022-07-09T03:45:18;100364.38;;;14.46;57.45
70158;BME280;57524;48.312;7.938;2022-07-09T03:47:44;100366.09;;;14.47;57.44
70158;BME280;57524;48.312;7.938;2022-07-09T03:50:13;100366.03;;;14.50;57.41
70158;BME280;57524;48.312;7.938;2022-07-09T03:52:40;100363.47;;;14.46;57.53
70158;BME280;57524;48.312;7.938;2022-07-09T03:55:09;100360.03;;;14.42;57.59
70158;BME280;57524;48.312;7.938;2022-07-09T03:57:35;100354.66;;;14.44;57.45
70158;BME280;57524;48.312;7.938;2022-07-09T04:00:03;100360.13;;;14.38;57.62
70158;BME280;57524;48.312;7.938;2022-07-09T04:02:37;100361.09;;;14.35;57.46
70158;BME280;57524;48.312;7.938;2022-07-09T04:05:05;100366.38;;;14.35;57.69
70158;BME280;57524;48.312;7.938;2022-07-09T04:07:32;100366.34;;;14.37;57.66
70158;BME280;57524;48.312;7.938;2022-07-09T04:09:59;100370.00;;;14.31;58.01
70158;BME280;57524;48.312;7.938;2022-07-09T04:12:26;100374.41;;;14.32;57.77
70158;BME280;57524;48.312;7.938;2022-07-09T04:14:53;100370.84;;;14.33;57.73
70158;BME280;57524;48.312;7.938;2022-07-09T04:17:20;100368.13;;;14.36;57.86
70158;BME280;57524;48.312;7.938;2022-07-09T04:19:46;100366.31;;;14.38;57.63
70158;BME280;57524;48.312;7.938;2022-07-09T04:22:13;100366.19;;;14.44;57.58
70158;BME280;57524;48.312;7.938;2022-07-09T04:24:39;100362.59;;;14.45;57.49
70158;BME280;57524;48.312;7.938;2022-07-09T04:27:06;100375.09;;;14.42;57.56
70158;BME280;57524;48.312;7.938;2022-07-09T04:29:34;100370.69;;;14.39;57.58
70158;BME280;57524;48.312;7.938;2022-07-09T04:32:01;100370.78;;;14.36;57.73
70158;BME280;57524;48.312;7.938;2022-07-09T04:34:27;100369.94;;;14.34;57.79
70158;BME280;57524;48.312;7.938;2022-07-09T04:36:54;100366.44;;;14.32;57.83
70158;BME280;57524;48.312;7.938;2022-07-09T04:39:20;100373.56;;;14.30;57.87
70158;BME280;57524;48.312;7.938;2022-07-09T04:41:49;100370.00;;;14.31;57.72
70158;BME280;57524;48.312;7.938;2022-07-09T04:44:20;100370.00;;;14.31;57.92
70158;BME280;57524;48.312;7.938;2022-07-09T04:46:48;100369.84;;;14.37;57.78
70158;BME280;57524;48.312;7.938;2022-07-09T04:49:15;100370.75;;;14.38;57.80
70158;BME280;57524;48.312;7.938;2022-07-09T04:51:41;100369.72;;;14.43;57.67
70158;BME280;57524;48.312;7.938;2022-07-09T04:54:08;100369.72;;;14.43;57.68
70158;BME280;57524;48.312;7.938;2022-07-09T04:56:35;100365.25;;;14.45;57.45
70158;BME280;57524;48.312;7.938;2022-07-09T04:59:01;100360.78;;;14.47;57.45
70158;BME280;57524;48.312;7.938;2022-07-09T05:01:28;100355.41;;;14.50;57.60
70158;BME280;57524;48.312;7.938;2022-07-09T05:03:57;100357.13;;;14.54;57.46
70158;BME280;57524;48.312;7.938;2022-07-09T05:06:24;100358.72;;;14.62;57.37
70158;BME280;57524;48.312;7.938;2022-07-09T05:08:50;100363.97;;;14.65;57.34
70158;BME280;57524;48.312;7.938;2022-07-09T05:11:17;100369.16;;;14.71;57.29
70158;BME280;57524;48.312;7.938;2022-07-09T05:13:43;100365.59;;;14.72;57.17
70158;BME280;57524;48.312;7.938;2022-07-09T05:16:11;100372.56;;;14.76;57.21
70158;BME280;57524;48.312;7.938;2022-07-09T05:18:38;100360.88;;;14.83;57.02
70158;BME280;57524;48.312;7.938;2022-07-09T05:21:06;100362.47;;;14.90;57.09
70158;BME280;57524;48.312;7.938;2022-07-09T05:23:33;100366.69;;;15.01;56.79
70158;BME280;57524;48.312;7.938;2022-07-09T05:26:00;100368.34;;;15.05;56.72
70158;BME280;57524;48.312;7.938;2022-07-09T05:28:26;100368.19;;;15.11;56.71
70158;BME280;57524;48.312;7.938;2022-07-09T05:30:53;100359.16;;;15.18;56.49
70158;BME280;57524;48.312;7.938;2022-07-09T05:33:20;100363.34;;;15.27;56.12
70158;BME280;57524;48.312;7.938;2022-07-09T05:35:46;100360.59;;;15.31;56.13
70158;BME280;57524;48.312;7.938;2022-07-09T05:38:14;100364.75;;;15.42;55.90
70158;BME280;57524;48.312;7.938;2022-07-09T05:40:41;100361.94;;;15.48;56.00
70158;BME280;57524;48.312;7.938;2022-07-09T05:43:08;100358.19;;;15.55;55.97
70158;BME280;57524;48.312;7.938;2022-07-09T05:45:35;100358.03;;;15.61;55.97
70158;BME280;57524;48.312;7.938;2022-07-09T05:48:01;100361.34;;;15.69;55.82
70158;BME280;57524;48.312;7.938;2022-07-09T05:50:28;100370.03;;;15.77;55.34
70158;BME280;57524;48.312;7.938;2022-07-09T05:52:55;100352.94;;;15.86;55.44
70158;BME280;57524;48.312;7.938;2022-07-09T05:55:23;100358.97;;;15.93;55.26
70158;BME280;57524;48.312;7.938;2022-07-09T05:57:49;100361.38;;;16.00;55.28
70158;BME280;57524;48.312;7.938;2022-07-09T06:00:16;100352.34;;;16.08;55.07
70158;BME280;57524;48.312;7.938;2022-07-09T06:02:43;100357.47;;;16.14;54.80
70158;BME280;57524;48.312;7.938;2022-07-09T06:05:09;100357.28;;;16.20;54.82
70158;BME280;57524;48.312;7.938;2022-07-09T06:07:36;100354.50;;;16.25;54.54
70158;BME280;57524;48.312;7.938;2022-07-09T06:10:04;100348.00;;;16.35;54.80
70158;BME280;57524;48.312;7.938;2022-07-09T06:12:32;100345.03;;;16.44;54.88
70158;BME280;57524;48.312;7.938;2022-07-09T06:15:00;100347.53;;;16.50;54.47
70158;BME280;57524;48.312;7.938;2022-07-09T06:17:27;100349.91;;;16.59;54.35
70158;BME280;57524;48.312;7.938;2022-07-09T06:19:54;100353.16;;;16.68;54.05
70158;BME280;57524;48.312;7.938;2022-07-09T06:22:20;100347.63;;;16.75;53.61
70158;BME280;57524;48.312;7.938;2022-07-09T06:24:49;100346.38;;;16.87;53.11
70158;BME280;57524;48.312;7.938;2022-07-09T06:27:15;100340.84;;;16.93;52.89
70158;BME280;57524;48.312;7.938;2022-07-09T06:29:43;100336.13;;;17.01;53.01
70158;BME280;57524;48.312;7.938;2022-07-09T06:32:10;100335.03;;;17.09;52.77
70158;BME280;57524;48.312;7.938;2022-07-09T06:34:37;100339.09;;;17.19;52.64
70158;BME280;57524;48.312;7.938;2022-07-09T06:37:04;100338.84;;;17.27;52.70
70158;BME280;57524;48.312;7.938;2022-07-09T06:39:31;100331.41;;;17.36;51.88
70158;BME280;57524;48.312;7.938;2022-07-09T06:42:15;100327.53;;;17.45;52.28
70158;BME280;57524;48.312;7.938;2022-07-09T06:44:46;100321.94;;;17.53;52.17
70158;BME280;57524;48.312;7.938;2022-07-09T06:47:13;100325.19;;;17.61;52.72
70158;BME280;57524;48.312;7.938;2022-07-09T06:49:40;100326.72;;;17.68;52.41
70158;BME280;57524;48.312;7.938;2022-07-09T06:52:07;100328.22;;;17.75;52.57
70158;BME280;57524;48.312;7.938;2022-07-09T06:54:34;100325.47;;;17.78;52.25
70158;BME280;57524;48.312;7.938;2022-07-09T06:57:01;100324.47;;;17.82;52.02
70158;BME280;57524;48.312;7.938;2022-07-09T06:59:28;100315.31;;;17.90;52.09
70158;BME280;57524;48.312;7.938;2022-07-09T07:01:56;100317.66;;;17.97;51.15
70158;BME280;57524;48.312;7.938;2022-07-09T07:04:23;100327.13;;;18.06;50.71
70158;BME280;57524;48.312;7.938;2022-07-09T07:06:50;100320.63;;;18.13;51.12
70158;BME280;57524;48.312;7.938;2022-07-09T07:09:17;100318.38;;;18.26;50.28
70158;BME280;57524;48.312;7.938;2022-07-09T07:11:47;100316.16;;;18.37;49.66
70158;BME280;57524;48.312;7.938;2022-07-09T07:14:13;100313.06;;;18.48;50.32
70158;BME280;57524;48.312;7.938;2022-07-09T07:16:40;100317.09;;;18.58;49.63
70158;BME280;57524;48.312;7.938;2022-07-09T07:19:08;100317.78;;;18.63;49.41
70158;BME280;57524;48.312;7.938;2022-07-09T07:21:35;100314.19;;;18.64;50.00
70158;BME280;57524;48.312;7.938;2022-07-09T07:24:02;100310.31;;;18.72;49.87
70158;BME280;57524;48.312;7.938;2022-07-09T07:26:29;100313.59;;;18.80;50.13
70158;BME280;57524;48.312;7.938;2022-07-09T07:28:56;100307.72;;;18.92;48.45
70158;BME280;57524;48.312;7.938;2022-07-09T07:31:23;100310.81;;;19.03;48.52
70158;BME280;57524;48.312;7.938;2022-07-09T07:33:50;100305.81;;;19.16;48.33
70158;BME280;57524;48.312;7.938;2022-07-09T07:36:18;100302.50;;;19.31;48.11
70158;BME280;57524;48.312;7.938;2022-07-09T07:38:44;100310.06;;;19.42;47.55
70158;BME280;57524;48.312;7.938;2022-07-09T07:41:11;100304.25;;;19.53;46.82
70158;BME280;57524;48.312;7.938;2022-07-09T07:43:38;100300.19;;;19.63;46.63
70158;BME280;57524;48.312;7.938;2022-07-09T07:46:05;100295.22;;;19.76;45.98
70158;BME280;57524;48.312;7.938;2022-07-09T07:48:31;100292.91;;;19.87;45.71
70158;BME280;57524;48.312;7.938;2022-07-09T07:51:01;100290.66;;;19.97;46.43
70158;BME280;57524;48.312;7.938;2022-07-09T07:53:29;100283.97;;;20.07;46.11
70158;BME280;57524;48.312;7.938;2022-07-09T07:55:56;100287.94;;;20.18;45.86
70158;BME280;57524;48.312;7.938;2022-07-09T07:58:22;100283.94;;;20.26;44.87
70158;BME280;57524;48.312;7.938;2022-07-09T08:00:49;100284.41;;;20.36;44.72
70158;BME280;57524;48.312;7.938;2022-07-09T08:03:16;100283.09;;;20.45;43.58
70158;BME280;57524;48.312;7.938;2022-07-09T08:05:43;100284.22;;;20.58;42.78
70158;BME280;57524;48.312;7.938;2022-07-09T08:08:09;100287.13;;;20.72;43.35
70158;BME280;57524;48.312;7.938;2022-07-09T08:10:37;100283.00;;;20.83;42.06
70158;BME280;57524;48.312;7.938;2022-07-09T08:13:04;100282.41;;;20.95;42.50
70158;BME280;57524;48.312;7.938;2022-07-09T08:15:30;100279.97;;;21.08;41.98
70158;BME280;57524;48.312;7.938;2022-07-09T08:17:57;100282.88;;;21.21;42.79
70158;BME280;57524;48.312;7.938;2022-07-09T08:20:23;100283.97;;;21.34;42.27
70158;BME280;57524;48.312;7.938;2022-07-09T08:22:50;100271.94;;;21.43;41.43
70158;BME280;57524;48.312;7.938;2022-07-09T08:25:17;100273.25;;;21.51;42.12
70158;BME280;57524;48.312;7.938;2022-07-09T08:27:45;100279.25;;;21.56;42.26
70158;BME280;57524;48.312;7.938;2022-07-09T08:30:11;100270.09;;;21.61;41.20
70158;BME280;57524;48.312;7.938;2022-07-09T08:32:38;100271.66;;;21.65;40.50
70158;BME280;57524;48.312;7.938;2022-07-09T08:35:06;100266.91;;;21.70;40.47
70158;BME280;57524;48.312;7.938;2022-07-09T08:37:33;100262.25;;;21.73;40.64
70158;BME280;57524;48.312;7.938;2022-07-09T08:40:05;100268.94;;;21.82;40.52
70158;BME280;57524;48.312;7.938;2022-07-09T08:42:32;100263.75;;;21.95;40.92
70158;BME280;57524;48.312;7.938;2022-07-09T08:45:00;100252.59;;;22.03;40.73
70158;BME280;57524;48.312;7.938;2022-07-09T08:47:29;100244.03;;;22.12;40.19
70158;BME280;57524;48.312;7.938;2022-07-09T08:49:57;100259.63;;;22.21;40.12
70158;BME280;57524;48.312;7.938;2022-07-09T08:52:25;100256.63;;;22.27;40.07
70158;BME280;57524;48.312;7.938;2022-07-09T08:54:52;100255.31;;;22.34;40.38
70158;BME280;57524;48.312;7.938;2022-07-09T08:57:19;100250.47;;;22.41;40.03
70158;BME280;57524;48.312;7.938;2022-07-09T08:59:46;100249.94;;;22.50;39.08
70158;BME280;57524;48.312;7.938;2022-07-09T09:02:14;100250.44;;;22.57;38.81
70158;BME280;57524;48.312;7.938;2022-07-09T09:04:41;100244.53;;;22.66;39.56
70158;BME280;57524;48.312;7.938;2022-07-09T09:07:14;100242.25;;;22.74;40.29
70158;BME280;57524;48.312;7.938;2022-07-09T09:09:41;100241.22;;;22.77;40.02
70158;BME280;57524;48.312;7.938;2022-07-09T09:12:08;100243.63;;;22.81;40.56
70158;BME280;57524;48.312;7.938;2022-07-09T09:14:35;100234.63;;;22.82;40.87
70158;BME280;57524;48.312;7.938;2022-07-09T09:17:04;100240.75;;;22.84;40.77
70158;BME280;57524;48.312;7.938;2022-07-09T09:19:32;100236.16;;;22.87;40.35
70158;BME280;57524;48.312;7.938;2022-07-09T09:21:59;100238.25;;;22.81;40.68
70158;BME280;57524;48.312;7.938;2022-07-09T09:24:26;100235.38;;;22.84;40.57
70158;BME280;57524;48.312;7.938;2022-07-09T09:26:56;100230.78;;;22.87;41.00
70158;BME280;57524;48.312;7.938;2022-07-09T09:29:23;100230.69;;;22.88;40.66
70158;BME280;57524;48.312;7.938;2022-07-09T09:31:50;100228.31;;;22.98;40.37
70158;BME280;57524;48.312;7.938;2022-07-09T09:34:18;100234.41;;;23.01;39.55
70158;BME280;57524;48.312;7.938;2022-07-09T09:36:47;100237.03;;;23.03;39.89
70158;BME280;57524;48.312;7.938;2022-07-09T09:39:17;100233.00;;;23.10;39.64
70158;BME280;57524;48.312;7.938;2022-07-09T09:41:45;100227.13;;;23.18;39.39
70158;BME280;57524;48.312;7.938;2022-07-09T09:44:13;100217.63;;;23.27;39.57
70158;BME280;57524;48.312;7.938;2022-07-09T09:46:41;100220.91;;;23.32;39.67
70158;BME280;57524;48.312;7.938;2022-07-09T09:49:09;100208.22;;;23.34;39.80
70158;BME280;57524;48.312;7.938;2022-07-09T09:51:42;100217.06;;;23.36;39.96
70158;BME280;57524;48.312;7.938;2022-07-09T09:54:12;100211.50;;;23.39;39.45
70158;BME280;57524;48.312;7.938;2022-07-09T09:56:39;100207.69;;;23.43;39.77
70158;BME280;57524;48.312;7.938;2022-07-09T09:59:06;100207.69;;;23.43;39.35
70158;BME280;57524;48.312;7.938;2022-07-09T10:01:33;100213.63;;;23.48;39.71
70158;BME280;57524;48.312;7.938;2022-07-09T10:04:00;100197.84;;;23.42;39.90
70158;BME280;57524;48.312;7.938;2022-07-09T10:06:27;100206.78;;;23.42;39.88
70158;BME280;57524;48.312;7.938;2022-07-09T10:08:54;100200.34;;;23.45;39.45
70158;BME280;57524;48.312;7.938;2022-07-09T10:11:23;100202.09;;;23.46;40.22
70158;BME280;57524;48.312;7.938;2022-07-09T10:13:52;100206.22;;;23.52;39.72
70158;BME280;57524;48.312;7.938;2022-07-09T10:16:18;100196.13;;;23.55;39.39
70158;BME280;57524;48.312;7.938;2022-07-09T10:18:51;100199.59;;;23.57;38.96
70158;BME280;57524;48.312;7.938;2022-07-09T10:21:33;100190.38;;;23.61;38.92
70158;BME280;57524;48.312;7.938;2022-07-09T10:24:00;100190.38;;;23.61;39.19
70158;BME280;57524;48.312;7.938;2022-07-09T10:26:43;100194.13;;;23.59;39.17
70158;BME280;57524;48.312;7.938;2022-07-09T10:29:24;100181.50;;;23.59;39.20
70158;BME280;57524;48.312;7.938;2022-07-09T10:31:52;100178.31;;;23.67;38.83
70158;BME280;57524;48.312;7.938;2022-07-09T10:34:41;100180.56;;;23.75;39.44
70158;BME280;57524;48.312;7.938;2022-07-09T10:37:10;100179.22;;;23.82;38.35
70158;BME280;57524;48.312;7.938;2022-07-09T10:39:36;100176.69;;;23.93;38.54
70158;BME280;57524;48.312;7.938;2022-07-09T10:42:06;100180.50;;;24.03;38.37
70158;BME280;57524;48.312;7.938;2022-07-09T10:44:35;100174.31;;;24.16;38.33
70158;BME280;57524;48.312;7.938;2022-07-09T10:47:03;100177.09;;;24.14;37.94
70158;BME280;57524;48.312;7.938;2022-07-09T10:49:30;100169.69;;;24.18;37.91
70158;BME280;57524;48.312;7.938;2022-07-09T10:51:59;100172.19;;;24.21;37.66
70158;BME280;57524;48.312;7.938;2022-07-09T10:54:26;100175.00;;;24.19;37.69
70158;BME280;57524;48.312;7.938;2022-07-09T10:56:53;100167.66;;;24.21;37.53
70158;BME280;57524;48.312;7.938;2022-07-09T10:59:22;100168.25;;;24.12;38.18
70158;BME280;57524;48.312;7.938;2022-07-09T11:01:49;100165.06;;;24.20;37.90
70158;BME280;57524;48.312;7.938;2022-07-09T11:04:27;100159.28;;;24.26;37.67
70158;BME280;57524;48.312;7.938;2022-07-09T11:06:54;100169.63;;;24.32;37.73
70158;BME280;57524;48.312;7.938;2022-07-09T11:09:21;100169.22;;;24.38;37.26
70158;BME280;57524;48.312;7.938;2022-07-09T11:11:48;100158.22;;;24.41;38.04
70158;BME280;57524;48.312;7.938;2022-07-09T11:14:15;100159.97;;;24.42;37.43
70158;BME280;57524;48.312;7.938;2022-07-09T11:16:52;100156.78;;;24.50;37.12
70158;BME280;57524;48.312;7.938;2022-07-09T11:19:19;100153.59;;;24.58;37.59
70158;BME280;57524;48.312;7.938;2022-07-09T11:21:47;100154.53;;;24.57;37.65
70158;BME280;57524;48.312;7.938;2022-07-09T11:24:15;100147.03;;;24.62;37.76
70158;BME280;57524;48.312;7.938;2022-07-09T11:26:42;100150.34;;;24.65;37.57
70158;BME280;57524;48.312;7.938;2022-07-09T11:29:09;100148.84;;;24.74;38.01
70158;BME280;57524;48.312;7.938;2022-07-09T11:31:36;100141.75;;;24.73;37.19
70158;BME280;57524;48.312;7.938;2022-07-09T11:34:04;100147.28;;;24.84;36.75
70158;BME280;57524;48.312;7.938;2022-07-09T11:36:38;100145.63;;;24.95;37.24
70158;BME280;57524;48.312;7.938;2022-07-09T11:39:05;100146.06;;;25.01;37.34
70158;BME280;57524;48.312;7.938;2022-07-09T11:41:40;100137.47;;;25.09;37.93
70158;BME280;57524;48.312;7.938;2022-07-09T11:44:06;100140.69;;;25.14;37.88
70158;BME280;57524;48.312;7.938;2022-07-09T11:46:34;100138.56;;;25.19;37.44
70158;BME280;57524;48.312;7.938;2022-07-09T11:49:02;100132.91;;;25.22;36.72
70158;BME280;57524;48.312;7.938;2022-07-09T11:51:32;100127.09;;;25.28;36.19
70158;BME280;57524;48.312;7.938;2022-07-09T11:53:59;100134.25;;;25.29;36.55
70158;BME280;57524;48.312;7.938;2022-07-09T11:56:26;100121.16;;;25.23;36.33
70158;BME280;57524;48.312;7.938;2022-07-09T11:58:53;100128.84;;;25.29;36.91
70158;BME280;57524;48.312;7.938;2022-07-09T12:01:22;100109.28;;;25.26;36.84
70158;BME280;57524;48.312;7.938;2022-07-09T12:03:50;100122.03;;;25.37;36.76
70158;BME280;57524;48.312;7.938;2022-07-09T12:06:16;100112.81;;;25.52;36.28
70158;BME280;57524;48.312;7.938;2022-07-09T12:08:44;100116.28;;;25.54;35.83
70158;BME280;57524;48.312;7.938;2022-07-09T12:11:11;100117.22;;;25.53;36.22
70158;BME280;57524;48.312;7.938;2022-07-09T12:13:38;100111.06;;;25.64;36.83
70158;BME280;57524;48.312;7.938;2022-07-09T12:16:04;100109.22;;;25.64;34.91
70158;BME280;57524;48.312;7.938;2022-07-09T12:18:31;100104.00;;;25.74;36.05
70158;BME280;57524;48.312;7.938;2022-07-09T12:20:58;100109.34;;;25.87;36.18
70158;BME280;57524;48.312;7.938;2022-07-09T12:23:26;100098.69;;;25.85;35.63
70158;BME280;57524;48.312;7.938;2022-07-09T12:25:54;100106.13;;;25.95;36.91
70158;BME280;57524;48.312;7.938;2022-07-09T12:28:20;100109.84;;;26.05;35.82
70158;BME280;57524;48.312;7.938;2022-07-09T12:30:47;100093.34;;;26.21;35.39
70158;BME280;57524;48.312;7.938;2022-07-09T12:33:15;100089.34;;;26.38;35.89
70158;BME280;57524;48.312;7.938;2022-07-09T12:35:41;100082.59;;;26.43;35.75
70158;BME280;57524;48.312;7.938;2022-07-09T12:38:08;100087.31;;;26.52;35.17
70158;BME280;57524;48.312;7.938;2022-07-09T12:40:34;100080.19;;;26.51;34.72
70158;BME280;57524;48.312;7.938;2022-07-09T12:43:02;100073.06;;;26.50;34.38
70158;BME280;57524;48.312;7.938;2022-07-09T12:45:29;100063.25;;;26.61;34.43
70158;BME280;57524;48.312;7.938;2022-07-09T12:47:56;100067.09;;;26.69;34.81
70158;BME280;57524;48.312;7.938;2022-07-09T12:50:22;100069.69;;;26.71;34.64
70158;BME280;57524;48.312;7.938;2022-07-09T12:52:49;100071.66;;;26.69;34.47